createdAt,value
2023-01-22T00:02:36.909Z,2.54
2023-01-22T00:07:38.448Z,2.57
2023-01-22T00:12:39.953Z,2.53
2023-01-22T00:17:41.378Z,2.56
2023-01-22T00:22:42.774Z,2.50
2023-01-22T00:27:44.217Z,2.61
2023-01-22T00:32:46.517Z,2.49
2023-01-22T00:37:48.336Z,2.54
2023-01-22T00:42:49.752Z,2.48
2023-01-22T00:47:52.385Z,2.44
2023-01-22T00:52:53.932Z,2.50
2023-01-22T00:57:55.362Z,2.54
2023-01-22T01:03:15.248Z,2.58
2023-01-22T01:08:16.647Z,2.61
2023-01-22T01:13:18.065Z,2.58
2023-01-22T01:18:21.033Z,2.43
2023-01-22T01:23:23.668Z,2.44
2023-01-22T01:28:25.555Z,2.53
2023-01-22T01:33:27.014Z,2.58
2023-01-22T01:38:28.921Z,2.46
2023-01-22T01:43:30.665Z,2.49
2023-01-22T01:48:40.393Z,2.62
2023-01-22T01:53:44.589Z,2.67
2023-01-22T01:58:47.191Z,2.45
2023-01-22T02:03:49.130Z,2.45
2023-01-22T02:08:53.654Z,2.37
2023-01-22T02:14:04.706Z,2.45
2023-01-22T02:19:06.165Z,2.37
2023-01-22T02:24:16.705Z,2.48
2023-01-22T02:29:18.145Z,2.49
2023-01-22T02:34:19.638Z,2.38
2023-01-22T02:39:21.125Z,2.39
2023-01-22T02:44:22.548Z,2.47
2023-01-22T02:49:24.216Z,2.46
2023-01-22T02:54:25.712Z,2.47
2023-01-22T02:59:27.132Z,2.44
2023-01-22T03:04:28.921Z,2.47
2023-01-22T03:09:30.429Z,2.43
2023-01-22T03:14:50.344Z,2.40
2023-01-22T03:20:10.400Z,2.44
2023-01-22T03:25:11.860Z,2.53
2023-01-22T03:30:13.392Z,2.57
2023-01-22T03:35:14.973Z,2.47
2023-01-22T03:40:17.023Z,2.48
2023-01-22T03:45:18.598Z,2.46
2023-01-22T03:50:20.203Z,2.43
2023-01-22T03:55:21.752Z,2.40
2023-01-22T04:00:23.163Z,2.46
2023-01-22T04:05:24.682Z,2.56
2023-01-22T04:10:26.112Z,2.41
2023-01-22T04:15:27.578Z,2.51
2023-01-22T04:20:29.029Z,2.53
2023-01-22T04:25:30.453Z,2.42
2023-01-22T04:30:32.556Z,2.51
2023-01-22T04:35:35.399Z,2.59
2023-01-22T04:40:36.849Z,2.46
2023-01-22T04:45:38.316Z,2.46
2023-01-22T04:50:39.891Z,2.37
2023-01-22T04:55:42.475Z,2.43
2023-01-22T05:00:43.922Z,2.44
2023-01-22T05:05:45.412Z,2.48
2023-01-22T05:10:46.862Z,2.53
2023-01-22T05:15:48.280Z,2.42
2023-01-22T05:20:49.789Z,2.47
2023-01-22T05:25:51.416Z,2.41
2023-01-22T05:30:52.917Z,2.43
2023-01-22T05:36:01.902Z,2.41
2023-01-22T05:41:03.354Z,2.29
2023-01-22T05:46:05.326Z,2.41
2023-01-22T05:51:08.410Z,2.39
2023-01-22T05:56:10.148Z,2.37
2023-01-22T06:01:12.390Z,2.39
2023-01-22T06:06:15.586Z,2.54
2023-01-22T06:11:17.213Z,2.69
2023-01-22T06:16:18.703Z,2.57
2023-01-22T06:21:20.148Z,2.41
2023-01-22T06:26:21.647Z,2.41
2023-01-22T06:31:23.412Z,2.36
2023-01-22T06:36:24.941Z,2.43
2023-01-22T06:41:26.429Z,2.49
2023-01-22T06:46:27.911Z,2.53
2023-01-22T06:51:30.061Z,2.61
2023-01-22T06:56:31.658Z,2.69
2023-01-22T07:01:33.135Z,2.72
2023-01-22T07:06:34.588Z,2.72
2023-01-22T07:11:36.038Z,2.61
2023-01-22T07:16:37.588Z,2.68
2023-01-22T07:21:39.007Z,2.72
2023-01-22T07:26:40.453Z,2.66
2023-01-22T07:31:42.703Z,2.76
2023-01-22T07:36:46.590Z,2.76
2023-01-22T07:41:48.046Z,2.74
2023-01-22T07:46:49.545Z,2.78
2023-01-22T07:51:51.059Z,2.77
2023-01-22T07:56:52.531Z,2.82
2023-01-22T08:01:55.105Z,2.80
2023-01-22T08:06:56.520Z,2.79
2023-01-22T08:11:57.965Z,2.66
2023-01-22T08:16:59.377Z,2.67
2023-01-22T08:22:00.899Z,2.62
2023-01-22T08:27:02.955Z,2.68
2023-01-22T08:32:04.698Z,2.78
2023-01-22T08:37:07.330Z,2.82
2023-01-22T08:42:08.740Z,2.92
2023-01-22T08:47:11.488Z,2.90
2023-01-22T08:52:13.017Z,2.80
2023-01-22T08:57:15.784Z,2.90
2023-01-22T09:02:17.330Z,2.91
2023-01-22T09:07:18.857Z,2.86
2023-01-22T09:12:20.370Z,2.92
2023-01-22T09:17:21.774Z,2.86
2023-01-22T09:22:23.332Z,2.81
2023-01-22T09:27:24.795Z,2.89
2023-01-22T09:32:26.311Z,2.86
2023-01-22T09:37:27.768Z,2.97
2023-01-22T09:42:34.903Z,3.04
2023-01-22T09:47:49.056Z,3.14
2023-01-22T09:52:53.454Z,3.19
2023-01-22T09:57:56.376Z,3.14
2023-01-22T10:03:05.385Z,3.19
2023-01-22T10:08:13.655Z,3.24
2023-01-22T10:13:18.201Z,3.30
2023-01-22T10:18:38.646Z,3.18
2023-01-22T10:23:40.096Z,3.18
2023-01-22T10:28:47.705Z,3.07
2023-01-22T10:33:55.620Z,3.04
2023-01-22T10:39:15.323Z,3.03
2023-01-22T10:44:23.373Z,3.00
2023-01-22T10:49:27.503Z,3.05
2023-01-22T10:54:43.754Z,3.06
2023-01-22T11:00:02.906Z,2.97
2023-01-22T11:05:24.730Z,3.16
2023-01-22T11:10:38.507Z,3.10
2023-01-22T11:16:10.938Z,3.09
2023-01-22T11:21:25.885Z,2.98
2023-01-22T11:26:31.651Z,3.04
2023-01-22T11:31:44.596Z,2.98
2023-01-22T11:36:55.381Z,3.04
2023-01-22T11:42:17.347Z,3.03
2023-01-22T11:47:33.667Z,2.98
2023-01-22T11:52:50.020Z,3.00
2023-01-22T11:58:08.649Z,2.99
2023-01-22T12:03:31.688Z,3.14
2023-01-22T12:08:43.459Z,3.28
2023-01-22T12:14:10.713Z,3.24
2023-01-22T12:19:46.128Z,3.16
2023-01-22T12:25:03.202Z,3.28
2023-01-22T12:30:27.359Z,3.26
2023-01-22T12:35:31.481Z,3.16
2023-01-22T12:41:03.729Z,3.15
2023-01-22T12:46:18.717Z,3.13
2023-01-22T12:51:39.906Z,3.07
2023-01-22T12:56:41.381Z,3.02
2023-01-22T13:01:43.652Z,2.84
2023-01-22T13:06:46.261Z,2.90
2023-01-22T13:11:47.744Z,2.98
2023-01-22T13:16:56.386Z,3.00
2023-01-22T13:21:59.741Z,3.08
2023-01-22T13:27:03.343Z,3.13
2023-01-22T13:32:16.012Z,2.96
2023-01-22T13:37:25.415Z,3.11
2023-01-22T13:42:27.809Z,2.98
2023-01-22T13:47:33.145Z,3.19
2023-01-22T13:52:34.833Z,3.00
2023-01-22T13:57:36.249Z,3.17
2023-01-22T14:02:37.691Z,3.17
2023-01-22T14:07:39.575Z,3.03
2023-01-22T14:12:41.046Z,3.30
2023-01-22T14:17:42.486Z,3.35
2023-01-22T14:22:43.928Z,3.25
2023-01-22T14:27:47.620Z,3.14
2023-01-22T14:32:49.078Z,3.23
2023-01-22T14:37:52.215Z,3.10
2023-01-22T14:42:53.813Z,3.02
2023-01-22T14:47:56.204Z,2.92
2023-01-22T14:52:57.711Z,3.02
2023-01-22T14:58:00.415Z,3.10
2023-01-22T15:03:02.148Z,3.05
2023-01-22T15:08:03.791Z,2.85
2023-01-22T15:13:05.223Z,2.89
2023-01-22T15:18:06.667Z,2.87
2023-01-22T15:23:08.101Z,2.99
2023-01-22T15:28:09.509Z,2.86
2023-01-22T15:33:10.915Z,2.82
2023-01-22T15:38:12.333Z,3.02
2023-01-22T15:43:13.743Z,2.86
2023-01-22T15:48:16.691Z,2.76
2023-01-22T15:53:18.148Z,2.75
2023-01-22T15:58:19.728Z,2.81
2023-01-22T16:03:21.152Z,2.75
2023-01-22T16:08:22.586Z,2.79
2023-01-22T16:13:24.060Z,2.77
2023-01-22T16:18:25.798Z,2.75
2023-01-22T16:23:27.392Z,2.52
2023-01-22T16:28:28.880Z,2.53
2023-01-22T16:33:32.720Z,2.52
2023-01-22T16:38:36.432Z,2.54
2023-01-22T16:43:37.925Z,2.57
2023-01-22T16:48:39.449Z,2.45
2023-01-22T16:53:40.896Z,2.34
2023-01-22T16:58:42.635Z,2.42
2023-01-22T17:03:44.529Z,2.44
2023-01-22T17:08:45.959Z,2.57
2023-01-22T17:13:47.723Z,2.42
2023-01-22T17:18:49.168Z,2.54
2023-01-22T17:23:50.638Z,2.36
2023-01-22T17:28:53.259Z,2.32
2023-01-22T17:33:55.900Z,2.25
2023-01-22T17:38:57.843Z,2.36
2023-01-22T17:44:00.844Z,2.29
2023-01-22T17:49:04.501Z,2.33
2023-01-22T17:54:06.321Z,2.41
2023-01-22T17:59:07.925Z,2.41
2023-01-22T18:04:11.738Z,2.52
2023-01-22T18:09:13.447Z,2.40
2023-01-22T18:14:22.394Z,2.40
2023-01-22T18:19:24.654Z,2.38
2023-01-22T18:24:27.037Z,2.45
2023-01-22T18:29:28.597Z,2.59
2023-01-22T18:34:30.099Z,2.50
2023-01-22T18:39:31.617Z,2.55
2023-01-22T18:44:33.042Z,2.45
2023-01-22T18:49:34.464Z,2.41
2023-01-22T18:54:36.302Z,2.50
2023-01-22T18:59:37.820Z,2.53
2023-01-22T19:04:39.245Z,2.59
2023-01-22T19:09:41.173Z,2.59
2023-01-22T19:14:42.578Z,2.60
2023-01-22T19:19:44.006Z,2.68
2023-01-22T19:24:45.741Z,2.67
2023-01-22T19:29:47.997Z,2.68
2023-01-22T19:34:49.406Z,2.71
2023-01-22T19:39:51.174Z,2.67
2023-01-22T19:44:52.957Z,2.67
2023-01-22T19:49:54.427Z,2.58
2023-01-22T19:54:55.911Z,2.63
2023-01-22T19:59:59.098Z,2.63
2023-01-22T20:05:00.565Z,2.66
2023-01-22T20:10:02.039Z,2.76
2023-01-22T20:15:04.579Z,2.67
2023-01-22T20:20:06.593Z,2.67
2023-01-22T20:25:09.115Z,2.76
2023-01-22T20:30:11.049Z,2.86
2023-01-22T20:35:15.483Z,2.82
2023-01-22T20:40:17.176Z,2.93
2023-01-22T20:45:18.871Z,2.88
2023-01-22T20:50:20.474Z,2.78
2023-01-22T20:55:24.708Z,2.85
2023-01-22T21:00:26.338Z,2.87
2023-01-22T21:05:28.685Z,2.74
2023-01-22T21:10:30.090Z,2.77
2023-01-22T21:15:33.521Z,2.84
2023-01-22T21:20:37.306Z,2.76
2023-01-22T21:25:38.999Z,2.67
2023-01-22T21:30:40.547Z,2.81
2023-01-22T21:35:48.364Z,2.87
2023-01-22T21:40:49.789Z,2.86
2023-01-22T21:46:09.925Z,3.02
2023-01-22T21:51:11.426Z,2.99
2023-01-22T21:56:12.863Z,2.93
2023-01-22T22:01:17.737Z,2.66
2023-01-22T22:06:19.368Z,2.76
2023-01-22T22:11:20.820Z,2.77
2023-01-22T22:16:23.035Z,2.75
2023-01-22T22:21:24.816Z,2.88
2023-01-22T22:26:26.297Z,2.90
2023-01-22T22:31:27.880Z,2.88
2023-01-22T22:36:30.702Z,2.89
2023-01-22T22:41:34.111Z,2.97
2023-01-22T22:46:37.921Z,2.94
2023-01-22T22:51:41.910Z,3.11
2023-01-22T22:56:44.742Z,2.92
2023-01-22T23:01:47.175Z,3.04
2023-01-22T23:06:48.636Z,3.06
2023-01-22T23:11:55.923Z,3.05
2023-01-22T23:16:57.837Z,3.12
2023-01-22T23:22:00.626Z,3.20
2023-01-22T23:27:02.197Z,3.10
2023-01-22T23:32:03.772Z,3.09
2023-01-22T23:37:05.178Z,2.90
2023-01-22T23:42:06.597Z,2.93
2023-01-22T23:47:08.008Z,2.99
2023-01-22T23:52:09.446Z,3.05
2023-01-22T23:57:10.877Z,3.11
